Time;durP1;ratioP1;P1;durP2;ratioP2;P2;SDS_P1;SDS_P2;PMS_P1;PMS_P2;Temp;Humidity;BMP_temperature;BMP_pressure;BME280_temperature;BME280_humidity;BME280_pressure;Samples;Min_cycle;Max_cycle;Signal;HPM_P1;HPM_P2
2022/11/10 00:00:38;;;;;;;13.90;4.80;;;;;;;9.85;90.71;101596.47;5037059;28;20119;-66
2022/11/10 00:03:08;;;;;;;18.70;5.30;;;;;;;9.82;90.81;101597.47;5033275;28;20197;-66
2022/11/10 00:05:37;;;;;;;15.13;4.63;;;;;;;9.83;90.60;101599.22;5052508;28;20097;-66
2022/11/10 00:08:08;;;;;;;15.18;4.60;;;;;;;9.81;90.81;101603.75;5042560;28;20545;-66
2022/11/10 00:10:55;;;;;;;17.25;5.18;;;;;;;9.70;91.16;101606.91;5047408;28;20049;-66
2022/11/10 00:13:24;;;;;;;19.98;5.63;;;;;;;9.76;91.35;101603.97;5048404;28;20032;-67
2022/11/10 00:18:33;;;;;;;14.30;4.93;;;;;;;9.72;91.58;101601.53;5050504;28;20075;-67
2022/11/10 00:21:10;;;;;;;14.68;4.90;;;;;;;9.71;91.56;101600.66;5040905;28;20037;-67
2022/11/10 00:23:36;;;;;;;19.50;6.03;;;;;;;9.70;91.55;101601.59;5041294;28;20025;-67
2022/11/10 00:26:02;;;;;;;16.15;5.38;;;;;;;9.66;91.84;101597.38;5041341;28;20443;-67
2022/11/10 00:28:30;;;;;;;16.20;5.15;;;;;;;9.67;91.77;101595.56;5037099;28;20053;-67
2022/11/10 00:30:58;;;;;;;19.85;5.80;;;;;;;9.66;91.72;101602.69;5040334;28;20377;-67
2022/11/10 00:33:24;;;;;;;21.73;5.45;;;;;;;9.66;91.87;101605.34;5041096;28;20058;-67
2022/11/10 00:35:49;;;;;;;12.10;5.13;;;;;;;9.63;92.06;101610.78;5018481;28;20026;-66
2022/11/10 00:38:14;;;;;;;19.13;4.95;;;;;;;9.64;92.33;101616.97;5038013;28;20040;-67
2022/11/10 00:40:40;;;;;;;15.77;5.20;;;;;;;9.60;91.84;101615.38;5050566;28;20029;-67
2022/11/10 00:43:06;;;;;;;15.27;5.28;;;;;;;9.60;92.21;101631.31;5051471;28;20548;-66
2022/11/10 00:45:33;;;;;;;17.05;4.70;;;;;;;9.62;92.26;101627.66;5043931;28;20083;-66
2022/11/10 00:47:59;;;;;;;19.02;5.50;;;;;;;9.59;92.46;101633.13;5044575;28;20044;-67
2022/11/10 00:50:25;;;;;;;19.73;5.63;;;;;;;9.59;92.21;101634.88;5019806;28;20029;-67
2022/11/10 00:52:50;;;;;;;18.67;5.88;;;;;;;9.57;92.46;101634.13;5043152;28;20083;-66
2022/11/10 00:55:18;;;;;;;16.85;5.55;;;;;;;9.56;92.75;101630.59;5037895;28;20489;-67
2022/11/10 00:57:46;;;;;;;18.88;5.15;;;;;;;9.55;92.33;101639.50;5049454;28;20592;-67
2022/11/10 01:00:12;;;;;;;20.55;5.90;;;;;;;9.53;92.24;101636.06;5023784;28;20065;-66
2022/11/10 01:02:38;;;;;;;17.92;5.15;;;;;;;9.57;92.50;101628.81;5038092;28;20433;-67
2022/11/10 01:05:04;;;;;;;15.02;5.10;;;;;;;9.55;92.78;101634.19;5033232;28;20033;-68
2022/11/10 01:07:33;;;;;;;20.05;5.45;;;;;;;9.53;92.54;101638.72;5052201;28;20403;-66
2022/11/10 01:09:58;;;;;;;18.10;4.57;;;;;;;9.53;92.99;101641.38;5049129;28;20029;-67
2022/11/10 01:12:27;;;;;;;19.00;6.18;;;;;;;9.52;92.99;101637.84;5032918;28;20033;-67
2022/11/10 01:14:53;;;;;;;18.70;5.15;;;;;;;9.55;92.55;101636.84;5034220;28;20037;-67
2022/11/10 01:17:19;;;;;;;14.73;6.38;;;;;;;9.53;92.81;101641.38;5047824;28;20033;-67
2022/11/10 01:19:44;;;;;;;20.00;5.65;;;;;;;9.50;93.05;101637.06;5052241;28;20032;-67
2022/11/10 01:22:10;;;;;;;17.50;5.93;;;;;;;9.53;92.42;101644.03;5037564;28;20489;-67
2022/11/10 01:24:38;;;;;;;17.58;5.43;;;;;;;9.52;92.90;101650.25;5030459;28;20041;-66
2022/11/10 01:27:06;;;;;;;17.70;5.43;;;;;;;9.47;92.73;101655.78;5035736;28;20076;-67
2022/11/10 01:29:31;;;;;;;14.25;5.72;;;;;;;9.46;93.04;101664.66;5049854;28;20024;-67
2022/11/10 01:31:57;;;;;;;19.00;5.88;;;;;;;9.48;93.09;101677.88;5035700;28;20134;-68
2022/11/10 01:34:25;;;;;;;18.67;5.13;;;;;;;9.52;92.87;101682.97;5030349;28;20043;-66
2022/11/10 01:36:50;;;;;;;22.65;5.75;;;;;;;9.53;92.78;101673.25;5036932;28;20159;-67
2022/11/10 01:39:15;;;;;;;23.90;5.68;;;;;;;9.51;93.27;101673.28;5041203;28;20120;-66
2022/11/10 01:41:41;;;;;;;20.92;5.32;;;;;;;9.46;92.78;101671.78;5044081;28;20033;-66
2022/11/10 01:44:18;;;;;;;18.25;4.80;;;;;;;9.53;92.69;101684.72;5034085;28;20484;-66
2022/11/10 01:46:46;;;;;;;17.10;5.32;;;;;;;9.43;92.89;101677.22;5030534;28;20033;-67
2022/11/10 01:49:14;;;;;;;16.52;5.20;;;;;;;9.43;93.39;101674.56;5032552;28;20055;-66
2022/11/10 01:51:39;;;;;;;21.88;5.90;;;;;;;9.44;93.09;101681.59;5047155;28;20181;-66
2022/11/10 01:54:13;;;;;;;23.42;5.78;;;;;;;9.43;93.19;101679.88;5038631;28;20112;-66
2022/11/10 01:56:46;;;;;;;18.83;5.72;;;;;;;9.42;93.40;101675.50;5030098;28;20036;-67
2022/11/10 01:59:19;;;;;;;17.33;5.13;;;;;;;9.43;93.24;101677.22;5036711;28;20509;-66
2022/11/10 02:01:49;;;;;;;23.08;5.72;;;;;;;9.40;93.50;101680.03;5048047;28;20438;-66
2022/11/10 02:04:16;;;;;;;;;;;;;;;9.45;92.60;101673.56;5031370;28;20038;-67
2022/11/10 02:06:46;;;;;;;21.95;4.90;;;;;;;9.38;93.56;101672.09;5050522;28;19916;-66
2022/11/10 02:09:12;;;;;;;15.50;5.10;;;;;;;9.35;93.48;101677.56;5051045;28;20025;-67
2022/11/10 02:11:40;;;;;;;21.70;5.25;;;;;;;9.35;93.83;101676.69;5037993;28;20028;-66
2022/11/10 02:14:10;;;;;;;17.15;6.00;;;;;;;9.32;93.37;101675.03;5049322;28;20037;-66
2022/11/10 02:16:36;;;;;;;18.67;4.97;;;;;;;9.34;93.68;101673.19;5037798;28;20025;-66
2022/11/10 02:19:40;;;;;;;16.65;5.22;;;;;;;9.32;93.61;101667.97;5032084;28;20041;-66
2022/11/10 02:22:08;;;;;;;18.90;4.85;;;;;;;9.36;93.28;101686.41;5036331;28;20037;-66
2022/11/10 02:24:36;;;;;;;14.48;5.30;;;;;;;9.34;93.36;101689.13;5051463;28;20488;-66
2022/11/10 02:27:02;;;;;;;18.52;5.60;;;;;;;9.33;93.68;101690.06;5050707;28;20048;-66
2022/11/10 02:29:27;;;;;;;17.25;5.15;;;;;;;9.32;93.38;101686.56;5049363;28;20335;-66
2022/11/10 02:31:53;;;;;;;19.83;5.82;;;;;;;9.30;93.66;101695.50;5047089;28;20108;-66
2022/11/10 02:34:19;;;;;;;19.92;6.40;;;;;;;9.24;93.46;101693.13;5040281;28;20407;-66
2022/11/10 02:36:46;;;;;;;26.27;6.30;;;;;;;9.26;94.01;101708.03;5050392;28;20033;-66
2022/11/10 02:39:12;;;;;;;19.27;5.00;;;;;;;9.28;93.98;101722.09;5047600;28;20501;-66
2022/11/10 02:41:37;;;;;;;17.85;5.75;;;;;;;9.26;94.08;101721.31;5033479;28;20080;-66
2022/11/10 02:44:05;;;;;;;16.58;4.95;;;;;;;9.23;93.86;101723.22;5031646;28;20041;-66
2022/11/10 02:46:38;;;;;;;21.50;5.18;;;;;;;9.24;93.96;101731.16;5031865;28;20033;-67
2022/11/10 02:49:06;;;;;;;13.80;5.43;;;;;;;9.25;93.77;101739.97;5038651;28;20460;-67
2022/11/10 02:51:32;;;;;;;17.08;5.20;;;;;;;9.26;93.84;101745.19;5031825;28;20400;-66
2022/11/10 02:53:58;;;;;;;17.38;5.70;;;;;;;9.20;93.94;101748.09;5030540;28;20116;-67
2022/11/10 02:56:24;;;;;;;17.75;5.10;;;;;;;9.21;94.04;101741.03;5030456;28;20036;-67
2022/11/10 02:58:49;;;;;;;17.05;4.97;;;;;;;9.20;94.12;101732.19;5031895;28;20037;-66
2022/11/10 03:01:17;;;;;;;18.98;5.90;;;;;;;9.18;93.92;101730.56;5040167;28;20090;-66
2022/11/10 03:03:42;;;;;;;25.08;6.32;;;;;;;9.18;94.43;101727.91;5050378;28;20032;-67
2022/11/10 03:06:07;;;;;;;18.45;5.22;;;;;;;9.14;94.16;101732.44;5048534;28;20542;-66
2022/11/10 03:08:33;;;;;;;17.90;5.18;;;;;;;9.06;94.49;101726.63;5043660;28;20116;-67
2022/11/10 03:10:58;;;;;;;14.60;4.88;;;;;;;9.12;94.53;101733.44;5033841;28;20042;-66
2022/11/10 03:13:27;;;;;;;16.27;5.10;;;;;;;9.06;94.54;101746.06;5040914;28;20040;-67
2022/11/10 03:15:52;;;;;;;20.20;4.97;;;;;;;9.08;94.36;101743.34;5050626;28;20102;-66
2022/11/10 03:18:18;;;;;;;22.83;5.72;;;;;;;9.07;94.51;101750.44;5052220;28;20487;-67
2022/11/10 03:20:46;;;;;;;18.40;5.50;;;;;;;9.05;94.34;101756.72;5034322;28;20565;-66
2022/11/10 03:23:11;;;;;;;14.80;4.82;;;;;;;9.03;94.25;101742.66;5035845;28;20116;-67
2022/11/10 03:25:39;;;;;;;17.30;5.28;;;;;;;9.05;94.42;101754.94;5026332;28;20454;-67
2022/11/10 03:28:04;;;;;;;17.90;4.88;;;;;;;9.03;94.92;101758.56;5048795;28;20498;-67
2022/11/10 03:30:30;;;;;;;15.40;5.25;;;;;;;8.96;94.85;101763.28;5051666;28;20037;-67
2022/11/10 03:32:55;;;;;;;16.55;5.13;;;;;;;8.99;94.30;101767.59;5041314;28;20059;-67
2022/11/10 03:35:21;;;;;;;17.75;5.00;;;;;;;8.97;94.66;101778.28;5033474;28;20029;-66
2022/11/10 03:37:46;;;;;;;16.67;5.30;;;;;;;8.93;94.76;101779.31;5045749;28;20040;-67
2022/11/10 03:40:12;;;;;;;21.08;6.10;;;;;;;8.92;94.84;101784.72;5053197;28;20044;-67
2022/11/10 03:42:44;;;;;;;20.98;6.20;;;;;;;8.89;95.03;101788.34;5035877;28;20044;-66
2022/11/10 03:45:11;;;;;;;16.05;5.45;;;;;;;8.86;95.37;101794.63;5054468;28;20082;-67
2022/11/10 03:47:37;;;;;;;19.25;5.80;;;;;;;8.84;94.90;101799.13;5042811;28;20029;-66
2022/11/10 03:50:03;;;;;;;21.33;6.13;;;;;;;8.85;94.94;101792.03;5043919;28;20036;-67
2022/11/10 03:52:32;;;;;;;16.98;5.03;;;;;;;8.85;95.32;101794.69;5042342;28;20043;-67
2022/11/10 03:54:58;;;;;;;18.52;5.53;;;;;;;8.85;94.96;101802.66;5032299;28;20044;-66
2022/11/10 03:57:25;;;;;;;16.77;5.03;;;;;;;8.82;94.74;101802.78;5046630;28;20032;-67
2022/11/10 03:59:51;;;;;;;17.33;5.40;;;;;;;8.75;95.05;101806.59;5051916;28;20396;-66
2022/11/10 04:02:19;;;;;;;22.67;5.63;;;;;;;8.69;95.43;101809.50;5045551;28;20038;-66
2022/11/10 04:10:12;;;;;;;19.58;5.55;;;;;;;8.67;95.32;101814.84;5051777;28;20052;-67
2022/11/10 04:18:20;;;;;;;22.92;5.60;;;;;;;8.62;96.17;101836.28;5052935;28;20048;-66
2022/11/10 04:20:57;;;;;;;14.30;5.43;;;;;;;8.61;96.19;101837.19;5052324;28;20052;-66
2022/11/10 04:23:27;;;;;;;20.08;6.07;;;;;;;8.57;96.27;101838.22;5046442;28;20091;-67
2022/11/10 04:28:37;;;;;;;20.35;6.07;;;;;;;8.59;96.97;101849.66;5044582;28;20083;-66
2022/11/10 04:31:05;;;;;;;24.20;6.70;;;;;;;8.56;97.08;101841.81;5046345;28;20441;-67
2022/11/10 04:33:34;;;;;;;17.63;4.93;;;;;;;8.53;96.80;101841.03;5048401;28;20075;-67
2022/11/10 04:36:02;;;;;;;15.27;5.85;;;;;;;8.59;96.86;101857.59;5035627;28;20030;-67
2022/11/10 04:38:30;;;;;;;22.98;6.53;;;;;;;8.55;97.17;101855.97;5046711;28;20480;-67
2022/11/10 04:40:58;;;;;;;23.75;6.35;;;;;;;8.56;97.21;101854.19;5033306;28;20075;-67
2022/11/10 04:43:23;;;;;;;15.95;6.35;;;;;;;8.58;97.55;101861.16;5045114;28;20033;-67
2022/11/10 04:45:49;;;;;;;17.33;5.32;;;;;;;8.53;97.40;101856.97;5051318;28;20025;-67
2022/11/10 04:48:15;;;;;;;21.23;6.05;;;;;;;8.66;97.26;101868.84;5051426;28;20040;-67
2022/11/10 04:50:40;;;;;;;19.58;5.70;;;;;;;8.63;97.51;101877.75;5042848;28;20041;-67
2022/11/10 04:53:06;;;;;;;24.70;5.72;;;;;;;8.62;97.44;101873.41;5037303;28;20041;-66
2022/11/10 04:55:31;;;;;;;23.95;6.22;;;;;;;8.59;97.38;101881.47;5045077;28;20207;-67
2022/11/10 04:57:56;;;;;;;18.52;6.07;;;;;;;8.63;97.42;101882.22;5042172;28;20480;-67
2022/11/10 05:00:22;;;;;;;21.75;6.25;;;;;;;8.61;97.26;101892.00;5036316;28;20571;-67
2022/11/10 05:02:47;;;;;;;22.80;6.03;;;;;;;8.61;97.36;101894.66;5042303;28;20021;-67
2022/11/10 05:05:13;;;;;;;23.63;5.93;;;;;;;8.52;97.64;101881.75;5034368;28;20068;-67
2022/11/10 05:07:38;;;;;;;20.20;5.18;;;;;;;8.57;97.11;101895.72;5047176;28;20116;-67
2022/11/10 05:10:04;;;;;;;22.67;5.68;;;;;;;8.56;97.62;101899.25;5032912;28;20025;-66
2022/11/10 05:12:32;;;;;;;20.05;6.00;;;;;;;8.56;97.70;101904.56;5037887;28;20024;-67
2022/11/10 05:14:57;;;;;;;22.67;5.75;;;;;;;8.56;97.57;101916.06;5051643;28;20025;-67
2022/11/10 05:17:22;;;;;;;18.65;5.55;;;;;;;8.57;97.51;101920.44;5052010;28;20444;-67
2022/11/10 05:19:50;;;;;;;24.38;6.05;;;;;;;8.57;97.58;101916.91;5053076;28;20044;-67
2022/11/10 05:22:18;;;;;;;21.60;6.40;;;;;;;8.51;97.36;101927.75;5051172;28;20029;-67
2022/11/10 05:24:46;;;;;;;23.17;6.18;;;;;;;8.52;97.76;101919.72;5052176;28;20039;-66
2022/11/10 05:27:12;;;;;;;26.92;6.65;;;;;;;8.49;97.63;101922.50;5049805;28;20033;-67
2022/11/10 05:29:37;;;;;;;22.35;6.10;;;;;;;8.43;97.76;101917.41;5046547;28;20036;-67
2022/11/10 05:32:03;;;;;;;22.10;6.38;;;;;;;8.45;97.72;101927.97;5032910;28;20055;-66
2022/11/10 05:34:29;;;;;;;20.17;6.13;;;;;;;8.45;97.62;101922.69;5031434;28;20033;-67
2022/11/10 05:36:54;;;;;;;19.38;6.78;;;;;;;8.44;97.82;101918.28;5042958;28;20084;-66
2022/11/10 05:39:19;;;;;;;18.55;5.88;;;;;;;8.40;98.21;101921.03;5044161;28;20034;-67
2022/11/10 05:41:47;;;;;;;19.30;6.00;;;;;;;8.38;98.35;101909.66;5034800;28;20039;-67
2022/11/10 05:44:15;;;;;;;19.20;6.20;;;;;;;8.35;98.10;101901.78;5051155;28;20123;-67
2022/11/10 05:46:47;;;;;;;18.95;6.13;;;;;;;8.32;98.69;101904.53;5049050;28;20060;-67
2022/11/10 05:49:12;;;;;;;20.23;6.03;;;;;;;8.33;98.46;101923.97;5032358;28;20463;-67
2022/11/10 05:51:38;;;;;;;24.58;5.35;;;;;;;8.33;98.58;101916.88;5032369;28;20029;-67
2022/11/10 05:54:04;;;;;;;25.15;6.50;;;;;;;8.34;98.65;101942.44;5044330;28;20026;-66
2022/11/10 05:56:30;;;;;;;20.90;6.15;;;;;;;8.30;98.55;101929.38;5038004;28;20487;-66
2022/11/10 05:58:55;;;;;;;16.38;5.78;;;;;;;8.36;98.72;101935.31;5041503;28;20025;-67
2022/11/10 06:01:20;;;;;;;19.83;5.57;;;;;;;8.34;98.71;101937.16;5033324;28;20503;-67
2022/11/10 06:03:46;;;;;;;20.92;6.28;;;;;;;8.34;98.75;101937.16;5032434;28;20032;-67
2022/11/10 06:06:14;;;;;;;21.48;5.85;;;;;;;8.31;98.54;101941.69;5030116;28;20047;-67
2022/11/10 06:08:39;;;;;;;15.73;5.80;;;;;;;8.28;98.59;101945.31;5031124;28;20029;-66
2022/11/10 06:11:04;;;;;;;20.20;5.43;;;;;;;8.30;98.88;101948.78;5035924;28;20087;-67
2022/11/10 06:13:30;;;;;;;19.35;5.78;;;;;;;8.29;99.04;101960.28;5042447;28;20059;-67
2022/11/10 06:15:56;;;;;;;20.63;6.13;;;;;;;8.29;99.08;101967.38;5047860;28;20029;-67
2022/11/10 06:18:23;;;;;;;20.63;5.35;;;;;;;8.30;98.89;101966.47;5031849;28;20025;-66
2022/11/10 06:20:49;;;;;;;19.20;5.68;;;;;;;8.30;99.20;101970.00;5036411;28;20041;-67
2022/11/10 06:23:14;;;;;;;21.83;5.60;;;;;;;8.27;99.40;101959.50;5043993;28;20035;-67
2022/11/10 06:25:40;;;;;;;19.70;6.25;;;;;;;8.24;99.06;101964.91;5016468;28;20052;-67
2022/11/10 06:28:07;;;;;;;24.70;6.43;;;;;;;8.29;99.38;101972.69;5042845;28;20067;-66
2022/11/10 06:30:34;;;;;;;20.15;6.25;;;;;;;8.24;99.15;101977.31;5034186;28;20472;-67
2022/11/10 06:33:02;;;;;;;26.02;6.40;;;;;;;8.25;99.36;101981.66;5048040;28;20128;-67
2022/11/10 06:35:30;;;;;;;17.92;6.35;;;;;;;8.24;99.69;101979.97;5040226;28;20033;-67
2022/11/10 06:38:04;;;;;;;17.15;5.82;;;;;;;8.26;99.42;101988.69;5039126;28;20052;-67
2022/11/10 06:40:32;;;;;;;16.10;5.10;;;;;;;8.26;99.51;102002.81;5037144;28;20471;-67
2022/11/10 06:43:03;;;;;;;22.45;5.97;;;;;;;8.23;99.32;102005.56;5042764;28;20772;-67
2022/11/10 06:45:28;;;;;;;23.50;6.20;;;;;;;8.23;99.48;102002.06;5031908;28;20511;-67
2022/11/10 06:48:04;;;;;;;25.80;7.40;;;;;;;8.26;99.56;102007.25;5046983;28;20037;-67
2022/11/10 06:50:30;;;;;;;21.27;6.30;;;;;;;8.20;99.32;102014.47;5038287;28;20106;-67
2022/11/10 06:52:59;;;;;;;19.77;6.47;;;;;;;8.14;99.79;102013.84;5048080;28;20512;-67
2022/11/10 06:55:25;;;;;;;15.38;5.50;;;;;;;8.20;99.87;102030.38;5031703;28;20029;-67
2022/11/10 06:57:51;;;;;;;18.15;6.38;;;;;;;8.22;99.71;102027.69;5031169;28;20032;-66
2022/11/10 07:00:17;;;;;;;20.55;6.63;;;;;;;8.22;99.91;102033.00;5030298;28;20033;-67
2022/11/10 07:02:42;;;;;;;17.98;5.53;;;;;;;8.21;100.00;102031.28;5030311;28;20044;-67
2022/11/10 07:05:08;;;;;;;15.75;5.70;;;;;;;8.21;100.00;102033.94;5030226;28;20033;-67
2022/11/10 07:07:34;;;;;;;24.50;6.75;;;;;;;8.19;100.00;102026.00;5030132;28;20038;-67
2022/11/10 07:09:59;;;;;;;18.55;6.53;;;;;;;8.23;100.00;102042.66;5028984;28;20036;-66
2022/11/10 07:12:24;;;;;;;18.45;6.25;;;;;;;8.24;100.00;102047.06;5047348;28;20036;-67
2022/11/10 07:14:50;;;;;;;28.23;6.78;;;;;;;8.26;99.95;102050.50;5050542;28;20070;-66
2022/11/10 07:17:16;;;;;;;21.75;7.00;;;;;;;8.24;100.00;102052.38;5049396;28;20103;-67
2022/11/10 07:19:41;;;;;;;25.30;6.65;;;;;;;8.25;100.00;102058.53;5051020;28;20017;-67
2022/11/10 07:22:09;;;;;;;24.38;6.70;;;;;;;8.26;100.00;102061.13;5050085;28;20029;-67
2022/11/10 07:24:35;;;;;;;26.05;7.40;;;;;;;8.23;100.00;102055.91;5046965;28;20070;-67
2022/11/10 07:27:00;;;;;;;18.50;5.97;;;;;;;8.30;100.00;102068.06;5033139;28;20045;-67
2022/11/10 07:29:26;;;;;;;21.55;6.93;;;;;;;8.30;100.00;102068.06;5029447;28;20068;-67
2022/11/10 07:31:52;;;;;;;20.85;6.78;;;;;;;8.32;99.93;102084.75;5031070;28;20049;-67
2022/11/10 07:34:17;;;;;;;20.92;6.43;;;;;;;8.27;99.90;102086.72;5030607;28;20064;-67
2022/11/10 07:36:43;;;;;;;17.25;6.07;;;;;;;8.35;100.00;102095.28;5039458;28;20025;-67
2022/11/10 07:39:10;;;;;;;17.45;5.82;;;;;;;8.36;99.80;102091.72;5043946;28;20036;-67
2022/11/10 07:41:35;;;;;;;23.35;6.32;;;;;;;8.41;99.77;102092.47;5049211;28;20502;-67
2022/11/10 07:44:01;;;;;;;18.90;6.05;;;;;;;8.41;99.89;102103.06;5047970;28;20036;-66
2022/11/10 07:46:27;;;;;;;17.70;6.13;;;;;;;8.44;99.63;102093.25;5049190;28;20108;-66
2022/11/10 07:48:53;;;;;;;22.77;6.50;;;;;;;8.44;99.88;102088.81;5048135;28;20437;-66
2022/11/10 07:51:19;;;;;;;22.08;6.28;;;;;;;8.44;99.67;102091.47;5048014;28;20029;-67
2022/11/10 07:53:45;;;;;;;19.48;6.45;;;;;;;8.44;99.16;102080.84;5049679;28;20033;-66
2022/11/10 07:56:10;;;;;;;17.42;6.03;;;;;;;8.52;99.76;102099.16;5050281;28;20048;-67
2022/11/10 07:58:35;;;;;;;24.98;6.60;;;;;;;8.53;99.34;102099.13;5033180;28;20112;-66
2022/11/10 08:01:03;;;;;;;18.45;6.43;;;;;;;8.57;99.62;102106.03;5049197;28;20083;-67
2022/11/10 08:03:29;;;;;;;21.20;6.55;;;;;;;8.58;99.58;102110.41;5035857;28;20036;-66
2022/11/10 08:05:55;;;;;;;27.08;7.43;;;;;;;8.64;99.36;102120.81;5054057;28;20219;-67
2022/11/10 08:08:23;;;;;;;23.25;6.70;;;;;;;8.63;98.96;102119.09;5051818;28;20388;-67
2022/11/10 08:10:48;;;;;;;23.42;7.15;;;;;;;8.73;98.94;102113.47;5040219;28;20064;-67
2022/11/10 08:13:16;;;;;;;18.83;5.97;;;;;;;8.78;98.56;102135.41;5038143;28;20029;-67
2022/11/10 08:15:42;;;;;;;25.88;6.45;;;;;;;8.78;98.51;102136.25;5033970;28;20029;-67
2022/11/10 08:18:18;;;;;;;20.48;7.18;;;;;;;8.87;98.32;102146.53;5051244;28;20526;-66
2022/11/10 08:20:44;;;;;;;19.30;6.50;;;;;;;8.91;98.50;102149.94;5051793;28;20511;-67
2022/11/10 08:23:12;;;;;;;20.08;6.97;;;;;;;8.93;98.03;102148.13;5053476;28;20033;-66
2022/11/10 08:25:38;;;;;;;26.58;6.68;;;;;;;9.00;97.77;102149.66;5039446;28;20410;-67
2022/11/10 08:28:13;;;;;;;19.45;6.30;;;;;;;9.04;97.61;102145.09;5052251;28;20033;-67
2022/11/10 08:30:43;;;;;;;20.27;6.40;;;;;;;9.11;97.51;102157.22;5049659;28;20029;-67
2022/11/10 08:33:11;;;;;;;19.95;6.10;;;;;;;9.06;97.34;102149.44;5049885;28;20037;-66
2022/11/10 08:35:40;;;;;;;18.50;6.35;;;;;;;9.15;97.22;102160.63;5050737;28;20021;-67
2022/11/10 08:38:12;;;;;;;26.20;6.55;;;;;;;9.20;96.87;102164.84;5033468;28;20013;-66
2022/11/10 08:40:38;;;;;;;23.00;6.82;;;;;;;9.27;97.22;102161.06;5042678;28;20017;-66
2022/11/10 08:43:07;;;;;;;17.83;5.57;;;;;;;9.33;96.68;102159.97;5046320;28;20120;-67
2022/11/10 08:45:37;;;;;;;21.67;6.15;;;;;;;9.40;96.52;102152.63;5051647;28;20033;-66
2022/11/10 08:48:05;;;;;;;23.00;6.80;;;;;;;9.51;95.82;102158.41;5051557;28;20025;-66
2022/11/10 08:50:31;;;;;;;22.50;7.25;;;;;;;9.57;95.48;102159.97;5045133;28;20027;-66
2022/11/10 08:53:01;;;;;;;23.45;7.90;;;;;;;9.56;95.28;102161.78;5042851;28;20037;-67
2022/11/10 08:55:27;;;;;;;23.63;6.10;;;;;;;9.65;95.31;102173.84;5049369;28;20491;-67
2022/11/10 08:57:57;;;;;;;20.40;6.18;;;;;;;9.72;94.64;102184.16;5051072;28;20025;-66
2022/11/10 09:00:23;;;;;;;20.73;6.40;;;;;;;9.76;94.95;102176.94;5051056;28;20515;-67
2022/11/10 09:02:51;;;;;;;25.92;6.78;;;;;;;9.87;94.79;102177.41;5051522;28;20053;-66
2022/11/10 09:05:16;;;;;;;20.52;5.95;;;;;;;9.91;94.21;102179.03;5034312;28;20033;-67
2022/11/10 09:07:46;;;;;;;19.17;6.18;;;;;;;10.01;94.45;102184.84;5045760;28;20424;-67
2022/11/10 09:10:12;;;;;;;20.52;6.10;;;;;;;10.08;93.25;102194.28;5051943;28;20016;-67
2022/11/10 09:12:38;;;;;;;17.15;5.50;;;;;;;10.14;93.57;102187.88;5043619;28;20111;-67
2022/11/10 09:15:08;;;;;;;18.50;5.88;;;;;;;10.14;92.73;102171.91;5041217;28;20091;-66
2022/11/10 09:17:34;;;;;;;26.35;6.50;;;;;;;10.27;92.63;102197.13;5045588;28;20100;-67
2022/11/10 09:19:59;;;;;;;17.92;5.80;;;;;;;10.30;92.17;102197.00;5040249;28;20443;-66
2022/11/10 09:22:25;;;;;;;17.08;5.63;;;;;;;10.39;91.81;102201.09;5034778;28;20033;-67
2022/11/10 09:24:51;;;;;;;24.15;5.72;;;;;;;10.46;91.42;102202.56;5040371;28;20017;-67
2022/11/10 09:27:17;;;;;;;14.40;5.70;;;;;;;10.52;90.57;102198.78;5048503;28;20033;-67
2022/11/10 09:29:45;;;;;;;15.48;6.00;;;;;;;10.58;90.76;102195.88;5044182;28;20374;-67
2022/11/10 09:32:10;;;;;;;17.38;6.28;;;;;;;10.70;91.04;102203.34;5048214;28;20104;-67
2022/11/10 09:34:36;;;;;;;24.38;6.07;;;;;;;10.78;91.02;102187.06;5047099;28;20051;-67
2022/11/10 09:37:02;;;;;;;21.17;6.18;;;;;;;10.97;90.06;102197.78;5046157;28;20052;-67
2022/11/10 09:39:30;;;;;;;17.65;5.15;;;;;;;11.03;89.75;102201.06;5039230;28;20056;-67
2022/11/10 09:41:57;;;;;;;17.67;5.25;;;;;;;11.08;88.47;102195.53;5049399;28;20052;-67
2022/11/10 09:44:30;;;;;;;18.20;5.63;;;;;;;11.20;88.61;102202.97;5060187;28;20028;-66
2022/11/10 09:47:04;;;;;;;14.68;5.05;;;;;;;11.37;88.09;102211.09;5049688;28;20063;-66
2022/11/10 09:49:43;;;;;;;18.08;5.65;;;;;;;11.54;88.26;102214.81;5031852;28;20090;-66
2022/11/10 09:52:15;;;;;;;19.60;5.30;;;;;;;11.74;87.96;102214.75;5032652;28;20032;-67
2022/11/10 09:54:47;;;;;;;19.73;5.90;;;;;;;11.81;85.42;102216.19;5048515;28;20037;-66
2022/11/10 09:57:17;;;;;;;18.38;5.97;;;;;;;11.96;84.65;102217.31;5046369;28;20392;-66
2022/11/10 09:59:43;;;;;;;16.92;5.57;;;;;;;12.16;84.09;102210.19;5032297;28;20100;-67
2022/11/10 10:02:12;;;;;;;17.85;5.15;;;;;;;12.41;82.82;102210.72;5033315;28;20548;-66
2022/11/10 10:05:02;;;;;;;17.80;5.28;;;;;;;12.64;82.17;102209.56;5032085;28;20071;-66
2022/11/10 10:07:47;;;;;;;24.02;5.43;;;;;;;13.06;80.27;102205.69;5037462;28;20167;-67
2022/11/10 10:10:37;;;;;;;17.17;5.18;;;;;;;13.48;79.48;102206.22;5030809;28;20074;-67
2022/11/10 10:13:22;;;;;;;17.70;5.45;;;;;;;13.83;77.66;102223.03;5031143;28;20704;-66
2022/11/10 10:15:56;;;;;;;14.23;5.20;;;;;;;14.06;75.17;102219.94;5029817;28;20385;-67
2022/11/10 10:18:37;;;;;;;15.63;4.72;;;;;;;14.35;74.07;102225.44;5032260;28;20212;-67
2022/11/10 10:21:22;;;;;;;14.35;4.72;;;;;;;14.61;71.78;102232.00;5031012;28;20040;-67
2022/11/10 10:23:51;;;;;;;12.88;4.40;;;;;;;14.74;71.06;102238.41;5031792;28;20037;-67
2022/11/10 10:26:20;;;;;;;18.60;5.22;;;;;;;14.85;69.84;102236.88;5033028;28;20435;-67
2022/11/10 10:28:47;;;;;;;;;;;;;;;15.16;73.52;102239.47;5032279;28;20071;-67
2022/11/10 10:31:19;;;;;;;18.15;4.45;;;;;;;15.31;69.64;102248.41;5031568;28;19912;-67
2022/11/10 10:33:46;;;;;;;19.40;4.45;;;;;;;15.52;68.35;102251.59;5036488;28;20072;-66
2022/11/10 10:36:18;;;;;;;13.90;4.00;;;;;;;15.58;67.67;102263.78;5051460;28;20032;-67
2022/11/10 10:38:48;;;;;;;12.68;3.42;;;;;;;15.75;65.77;102260.94;5047173;28;20093;-67
2022/11/10 10:41:26;;;;;;;16.40;3.95;;;;;;;16.01;66.79;102269.19;5029988;28;20391;-67
2022/11/10 10:43:55;;;;;;;14.20;3.65;;;;;;;16.19;64.31;102270.69;5030377;28;20414;-67
2022/11/10 10:46:25;;;;;;;17.50;3.60;;;;;;;16.31;63.73;102280.63;5031255;28;20392;-67
2022/11/10 10:49:16;;;;;;;18.08;4.10;;;;;;;16.71;64.31;102287.94;5032498;28;20038;-67
2022/11/10 10:51:43;;;;;;;14.95;3.55;;;;;;;16.60;61.32;102299.38;5031521;28;20030;-67
2022/11/10 10:54:35;;;;;;;11.77;3.60;;;;;;;16.79;62.49;102291.88;5031525;28;20052;-67
2022/11/10 10:57:22;;;;;;;12.43;3.75;;;;;;;16.94;62.57;102289.09;5031750;28;20396;-67
2022/11/10 10:59:48;;;;;;;13.05;4.13;;;;;;;17.09;60.15;102293.47;5034876;28;20025;-67
2022/11/10 11:02:29;;;;;;;13.07;3.28;;;;;;;17.33;60.04;102292.78;5050033;28;20104;-67
2022/11/10 11:05:18;;;;;;;11.57;3.22;;;;;;;17.51;60.31;102291.50;5051081;28;20048;-67
2022/11/10 11:07:54;;;;;;;10.35;3.13;;;;;;;17.90;59.14;102287.84;5051428;28;20029;-67
2022/11/10 11:10:25;;;;;;;14.18;3.30;;;;;;;17.91;57.19;102289.59;5047660;28;20025;-67
2022/11/10 11:12:51;;;;;;;15.35;3.40;;;;;;;18.27;56.40;102285.22;5051448;28;20036;-67
2022/11/10 11:15:30;;;;;;;10.25;3.22;;;;;;;18.37;55.60;102293.50;5049438;28;20029;-67
2022/11/10 11:18:04;;;;;;;17.73;3.70;;;;;;;17.94;55.31;102291.19;5051361;28;20044;-67
2022/11/10 11:20:49;;;;;;;10.07;3.10;;;;;;;17.93;57.25;102292.16;5050977;28;20025;-67
2022/11/10 11:23:50;;;;;;;11.35;3.05;;;;;;;18.02;58.14;102288.81;5050937;28;20090;-67
2022/11/10 11:26:25;;;;;;;15.52;3.40;;;;;;;18.25;56.25;102272.84;5029491;28;20033;-67
2022/11/10 11:29:02;;;;;;;13.25;3.20;;;;;;;18.25;55.53;102284.47;5033533;28;20384;-67
2022/11/10 11:31:37;;;;;;;8.63;3.00;;;;;;;18.68;56.36;102280.44;5062964;28;20029;-67
2022/11/10 11:34:02;;;;;;;11.55;3.30;;;;;;;19.15;52.34;102294.91;5038759;28;20507;-67
2022/11/10 11:36:37;;;;;;;6.80;3.20;;;;;;;19.21;52.63;102298.00;5050897;28;20025;-67
2022/11/10 11:39:47;;;;;;;11.90;3.10;;;;;;;19.45;53.80;102310.59;5052146;28;20060;-67
2022/11/10 11:42:46;;;;;;;12.32;3.13;;;;;;;19.26;51.43;102301.19;5052270;28;20025;-67
2022/11/10 11:45:25;;;;;;;9.95;3.08;;;;;;;18.39;53.76;102313.97;5049756;28;20025;-67
2022/11/10 11:48:09;;;;;;;7.07;2.63;;;;;;;18.10;53.52;102332.22;5054804;28;20116;-67